createdAt,value
2019-05-28T00:00:50.462Z,12.68
2019-05-28T00:03:18.787Z,12.67
2019-05-28T00:05:47.170Z,12.67
2019-05-28T00:08:15.502Z,12.68
2019-05-28T00:10:43.758Z,12.70
2019-05-28T00:13:12.076Z,12.69
2019-05-28T00:15:41.645Z,12.68
2019-05-28T00:18:09.998Z,12.68
2019-05-28T00:20:38.513Z,12.69
2019-05-28T00:23:06.798Z,12.69
2019-05-28T00:25:35.098Z,12.67
2019-05-28T00:28:03.527Z,12.68
2019-05-28T00:30:31.984Z,12.69
2019-05-28T00:33:00.269Z,12.70
2019-05-28T00:35:28.685Z,12.71
2019-05-28T00:37:57.120Z,12.71
2019-05-28T00:40:25.430Z,12.67
2019-05-28T00:42:53.714Z,12.68
2019-05-28T00:45:22.015Z,12.68
2019-05-28T00:47:50.331Z,12.70
2019-05-28T00:50:18.641Z,12.66
2019-05-28T00:52:47.091Z,12.66
2019-05-28T00:55:15.518Z,12.67
2019-05-28T00:57:44.568Z,12.66
2019-05-28T01:00:13.005Z,12.66
2019-05-28T01:02:41.465Z,12.68
2019-05-28T01:05:09.737Z,12.66
2019-05-28T01:07:38.043Z,12.67
2019-05-28T01:10:07.764Z,12.67
2019-05-28T01:12:36.069Z,12.67
2019-05-28T01:15:08.947Z,12.69
2019-05-28T01:17:37.608Z,12.69
2019-05-28T01:20:08.842Z,12.67
2019-05-28T01:22:37.113Z,12.65
2019-05-28T01:25:06.361Z,12.63
2019-05-28T01:27:34.964Z,12.60
2019-05-28T01:30:04.288Z,12.60
2019-05-28T01:32:32.648Z,12.61
2019-05-28T01:35:00.957Z,12.63
2019-05-28T01:37:29.239Z,12.65
2019-05-28T01:39:57.593Z,12.65
2019-05-28T01:42:25.934Z,12.64
2019-05-28T01:44:54.360Z,12.60
2019-05-28T01:47:22.654Z,12.57
2019-05-28T01:49:50.931Z,12.53
2019-05-28T01:52:19.293Z,12.49
2019-05-28T01:54:47.602Z,12.46
2019-05-28T01:57:15.911Z,12.43
2019-05-28T01:59:44.279Z,12.48
2019-05-28T02:02:12.666Z,12.43
2019-05-28T02:04:40.984Z,12.41
2019-05-28T02:07:09.421Z,12.40
2019-05-28T02:09:37.801Z,12.38
2019-05-28T02:12:06.105Z,12.38
2019-05-28T02:14:35.025Z,12.35
2019-05-28T02:17:05.692Z,12.35
2019-05-28T02:19:34.058Z,12.33
2019-05-28T02:22:02.370Z,12.30
2019-05-28T02:24:30.682Z,12.27
2019-05-28T02:26:59.016Z,12.28
2019-05-28T02:29:27.370Z,12.29
2019-05-28T02:31:55.709Z,12.24
2019-05-28T02:34:24.046Z,12.19
2019-05-28T02:36:52.364Z,12.14
2019-05-28T02:39:20.884Z,12.12
2019-05-28T02:41:49.190Z,12.10
2019-05-28T02:44:17.571Z,12.04
2019-05-28T02:46:45.896Z,12.03
2019-05-28T02:49:14.227Z,12.00
2019-05-28T02:51:42.734Z,11.99
2019-05-28T02:54:11.190Z,11.96
2019-05-28T02:56:40.402Z,11.95
2019-05-28T02:59:09.082Z,11.96
2019-05-28T03:01:44.200Z,11.95
2019-05-28T03:04:07.708Z,11.97
2019-05-28T03:06:36.058Z,11.97
2019-05-28T03:09:06.706Z,11.98
2019-05-28T03:11:35.133Z,11.97
2019-05-28T03:14:03.436Z,11.98
2019-05-28T03:16:31.818Z,12.00
2019-05-28T03:19:00.125Z,12.02
2019-05-28T03:21:28.407Z,12.04
2019-05-28T03:23:57.246Z,12.06
2019-05-28T03:26:25.552Z,12.08
2019-05-28T03:28:53.835Z,12.09
2019-05-28T03:31:22.248Z,12.08
2019-05-28T03:33:50.580Z,12.06
2019-05-28T03:36:18.862Z,12.05
2019-05-28T03:38:47.851Z,12.04
2019-05-28T03:41:16.136Z,12.03
2019-05-28T03:43:44.584Z,12.02
2019-05-28T03:46:13.017Z,12.01
2019-05-28T03:48:41.303Z,12.01
2019-05-28T03:51:09.638Z,11.99
2019-05-28T03:53:37.958Z,11.97
2019-05-28T03:56:06.439Z,11.94
2019-05-28T03:58:34.730Z,11.92
2019-05-28T04:01:03.063Z,11.91
2019-05-28T04:03:31.366Z,11.85
2019-05-28T04:06:00.521Z,11.84
2019-05-28T04:08:29.100Z,11.85
2019-05-28T04:10:57.493Z,11.83
2019-05-28T04:13:25.978Z,11.82
2019-05-28T04:15:54.294Z,11.86
2019-05-28T04:18:22.641Z,11.84
2019-05-28T04:20:50.946Z,11.82
2019-05-28T04:23:19.501Z,11.79
2019-05-28T04:25:47.807Z,11.81
2019-05-28T04:28:16.253Z,11.79
2019-05-28T04:30:44.725Z,11.78
2019-05-28T04:33:13.129Z,11.80
2019-05-28T04:35:41.473Z,11.80
2019-05-28T04:38:09.762Z,11.82
2019-05-28T04:40:38.085Z,11.84
2019-05-28T04:43:06.391Z,11.85
2019-05-28T04:45:34.804Z,11.83
2019-05-28T04:48:03.089Z,11.87
2019-05-28T04:50:31.441Z,11.86
2019-05-28T04:52:59.776Z,11.87
2019-05-28T04:55:28.221Z,11.89
2019-05-28T04:57:56.521Z,11.88
2019-05-28T05:00:24.938Z,11.91
2019-05-28T05:02:59.153Z,11.91
2019-05-28T05:05:23.393Z,11.93
2019-05-28T05:07:51.672Z,11.96
2019-05-28T05:10:20.040Z,11.98
2019-05-28T05:12:48.342Z,12.01
2019-05-28T05:15:16.699Z,12.02
2019-05-28T05:17:45.144Z,12.08
2019-05-28T05:20:13.426Z,12.07
2019-05-28T05:22:41.719Z,12.07
2019-05-28T05:25:10.409Z,12.08
2019-05-28T05:27:38.793Z,12.04
2019-05-28T05:30:07.407Z,12.09
2019-05-28T05:32:35.723Z,12.13
2019-05-28T05:35:04.681Z,12.16
2019-05-28T05:37:33.031Z,12.13
2019-05-28T05:40:01.380Z,12.15
2019-05-28T05:42:29.784Z,12.16
2019-05-28T05:44:58.320Z,12.19
2019-05-28T05:47:26.618Z,12.26
2019-05-28T05:49:54.924Z,12.34
2019-05-28T05:52:23.226Z,12.37
2019-05-28T05:54:51.566Z,12.40
2019-05-28T05:57:19.853Z,12.42
2019-05-28T05:59:48.436Z,12.46
2019-05-28T06:02:16.767Z,12.47
2019-05-28T06:04:45.047Z,12.44
2019-05-28T06:07:13.326Z,12.52
2019-05-28T06:09:41.665Z,12.58
2019-05-28T06:12:10.028Z,12.55
2019-05-28T06:14:38.409Z,12.52
2019-05-28T06:17:06.837Z,12.60
2019-05-28T06:19:35.100Z,12.72
2019-05-28T06:22:04.110Z,12.82
2019-05-28T06:24:32.390Z,12.92
2019-05-28T06:27:00.708Z,13.00
2019-05-28T06:29:29.130Z,13.09
2019-05-28T06:31:57.469Z,13.15
2019-05-28T06:34:25.847Z,13.23
2019-05-28T06:36:54.228Z,13.37
2019-05-28T06:39:22.512Z,13.47
2019-05-28T06:41:51.009Z,13.57
2019-05-28T06:44:19.361Z,13.73
2019-05-28T06:46:47.648Z,13.83
2019-05-28T06:49:15.954Z,13.97
2019-05-28T06:51:44.234Z,14.07
2019-05-28T06:54:12.547Z,14.16
2019-05-28T06:56:40.834Z,14.17
2019-05-28T06:59:09.138Z,14.29
2019-05-28T07:01:37.607Z,14.42
2019-05-28T07:04:13.928Z,14.43
2019-05-28T07:06:36.212Z,14.38
2019-05-28T07:09:06.240Z,14.44
2019-05-28T07:11:34.656Z,14.56
2019-05-28T07:14:02.995Z,14.61
2019-05-28T07:16:31.351Z,14.75
2019-05-28T07:18:59.667Z,14.78
2019-05-28T07:21:28.758Z,14.88
2019-05-28T07:23:57.111Z,15.04
2019-05-28T07:26:25.412Z,15.24
2019-05-28T07:28:53.709Z,15.37
2019-05-28T07:31:22.279Z,15.52
2019-05-28T07:33:50.544Z,15.66
2019-05-28T07:36:19.011Z,15.68
2019-05-28T07:38:47.319Z,15.60
2019-05-28T07:41:15.598Z,15.58
2019-05-28T07:43:43.899Z,15.68
2019-05-28T07:46:12.199Z,15.74
2019-05-28T07:48:40.642Z,15.80
2019-05-28T07:51:08.892Z,15.88
2019-05-28T07:53:40.526Z,15.99
2019-05-28T07:56:07.361Z,16.04
2019-05-28T07:58:35.666Z,16.10
2019-05-28T08:01:04.033Z,16.13
2019-05-28T08:03:32.569Z,16.18
2019-05-28T08:06:00.836Z,16.12
2019-05-28T08:08:29.276Z,15.98
2019-05-28T08:10:57.581Z,16.02
2019-05-28T08:13:39.465Z,15.98
2019-05-28T08:16:16.542Z,15.96
2019-05-28T08:18:26.164Z,15.97
2019-05-28T08:20:55.261Z,16.12
2019-05-28T08:23:23.667Z,16.25
2019-05-28T08:25:52.029Z,16.17
2019-05-28T08:28:20.728Z,16.31
2019-05-28T08:30:49.160Z,16.35
2019-05-28T08:33:17.489Z,16.38
2019-05-28T08:35:45.950Z,16.54
2019-05-28T08:38:14.434Z,16.65
2019-05-28T08:40:42.851Z,16.60
2019-05-28T08:43:11.204Z,16.48
2019-05-28T08:45:42.596Z,16.55
2019-05-28T08:48:09.691Z,16.54
2019-05-28T08:50:38.008Z,16.64
2019-05-28T08:53:06.290Z,16.72
2019-05-28T08:55:34.780Z,16.83
2019-05-28T08:58:03.159Z,16.93
2019-05-28T09:00:39.289Z,17.05
2019-05-28T09:03:07.665Z,17.13
2019-05-28T09:05:35.971Z,17.06
2019-05-28T09:08:04.597Z,17.06
2019-05-28T09:10:32.894Z,17.17
2019-05-28T09:13:01.267Z,17.25
2019-05-28T09:15:29.576Z,17.31
2019-05-28T09:17:57.856Z,17.30
2019-05-28T09:20:26.244Z,17.41
2019-05-28T09:22:54.537Z,17.44
2019-05-28T09:25:22.858Z,17.55
2019-05-28T09:27:51.157Z,17.65
2019-05-28T09:30:19.566Z,17.76
2019-05-28T09:32:47.996Z,17.87
2019-05-28T09:35:16.512Z,17.85
2019-05-28T09:37:44.848Z,17.90
2019-05-28T09:40:13.126Z,18.03
2019-05-28T09:42:41.548Z,18.31
2019-05-28T09:45:22.088Z,18.48
2019-05-28T09:47:39.825Z,18.70
2019-05-28T09:50:27.099Z,18.71
2019-05-28T09:52:53.112Z,18.66
2019-05-28T09:55:08.339Z,18.58
2019-05-28T09:57:46.813Z,18.41
2019-05-28T10:00:15.226Z,18.52
2019-05-28T10:02:43.693Z,18.56
2019-05-28T10:05:11.984Z,18.71
2019-05-28T10:07:40.287Z,18.94
2019-05-28T10:10:08.689Z,19.19
2019-05-28T10:12:37.743Z,19.27
2019-05-28T10:15:10.325Z,19.29
2019-05-28T10:17:38.671Z,19.32
2019-05-28T10:20:07.113Z,19.27
2019-05-28T10:22:35.393Z,19.38
2019-05-28T10:25:06.037Z,19.35
2019-05-28T10:27:34.347Z,19.15
2019-05-28T10:30:02.906Z,18.93
2019-05-28T10:32:31.322Z,18.80
2019-05-28T10:35:03.681Z,18.85
2019-05-28T10:37:29.822Z,18.79
2019-05-28T10:39:58.344Z,18.76
2019-05-28T10:42:26.623Z,18.80
2019-05-28T10:44:55.100Z,18.90
2019-05-28T10:47:23.458Z,18.96
2019-05-28T10:49:51.840Z,19.09
2019-05-28T10:52:20.202Z,19.34
2019-05-28T10:54:48.478Z,19.45
2019-05-28T10:57:16.801Z,19.53
2019-05-28T10:59:45.088Z,19.56
2019-05-28T11:02:13.515Z,19.53
2019-05-28T11:04:41.871Z,19.63
2019-05-28T11:07:10.154Z,19.61
2019-05-28T11:09:38.469Z,19.40
2019-05-28T11:12:07.048Z,19.25
2019-05-28T11:14:35.445Z,19.22
2019-05-28T11:17:03.806Z,19.24
2019-05-28T11:19:32.085Z,19.18
2019-05-28T11:22:00.405Z,19.18
2019-05-28T11:24:28.836Z,19.13
2019-05-28T11:26:57.323Z,19.13
2019-05-28T11:29:25.602Z,19.21
2019-05-28T11:31:53.884Z,19.30
2019-05-28T11:34:22.246Z,19.45
2019-05-28T11:36:50.663Z,19.45
2019-05-28T11:39:18.918Z,19.44
2019-05-28T11:41:47.267Z,19.45
2019-05-28T11:44:15.586Z,19.42
2019-05-28T11:46:43.944Z,19.26
2019-05-28T11:49:12.236Z,19.23
2019-05-28T11:51:40.737Z,19.12
2019-05-28T11:54:09.170Z,18.94
2019-05-28T11:56:37.507Z,18.79
2019-05-28T11:59:05.898Z,18.70
2019-05-28T12:01:35.512Z,18.64
2019-05-28T12:04:04.053Z,18.46
2019-05-28T12:06:37.948Z,18.21
2019-05-28T12:09:02.610Z,18.08
2019-05-28T12:11:30.898Z,18.00
2019-05-28T12:13:59.376Z,17.94
2019-05-28T12:16:28.000Z,17.89
2019-05-28T12:18:58.391Z,17.86
2019-05-28T12:21:26.354Z,17.83
2019-05-28T12:23:54.663Z,17.76
2019-05-28T12:26:22.950Z,17.69
2019-05-28T12:28:51.252Z,17.70
2019-05-28T12:31:19.690Z,17.60
2019-05-28T12:33:48.062Z,17.58
2019-05-28T12:36:16.347Z,17.57
2019-05-28T12:38:44.763Z,17.57
2019-05-28T12:41:13.048Z,17.61
2019-05-28T12:43:41.323Z,17.58
2019-05-28T12:46:09.640Z,17.58
2019-05-28T12:48:37.915Z,17.65
2019-05-28T12:51:06.306Z,17.64
2019-05-28T12:53:49.239Z,17.53
2019-05-28T12:56:04.841Z,17.44
2019-05-28T12:58:42.585Z,17.37
2019-05-28T13:01:03.376Z,17.36
2019-05-28T13:03:31.917Z,17.33
2019-05-28T13:06:00.172Z,17.38
2019-05-28T13:08:28.476Z,17.36
2019-05-28T13:10:56.759Z,17.31
2019-05-28T13:13:25.068Z,17.31
2019-05-28T13:15:53.364Z,17.28
2019-05-28T13:18:21.786Z,17.18
2019-05-28T13:20:50.132Z,17.19
2019-05-28T13:23:18.459Z,17.15
2019-05-28T13:25:46.793Z,17.14
2019-05-28T13:28:15.074Z,17.20
2019-05-28T13:30:43.379Z,17.22
2019-05-28T13:33:11.712Z,17.24
2019-05-28T13:35:40.082Z,17.28
2019-05-28T13:38:25.564Z,17.27
2019-05-28T13:40:38.377Z,17.18
2019-05-28T13:43:06.732Z,17.04
2019-05-28T13:45:35.020Z,16.99
2019-05-28T13:48:03.294Z,16.98
2019-05-28T13:50:31.600Z,17.00
2019-05-28T13:52:59.885Z,17.20
2019-05-28T13:55:28.192Z,17.41
2019-05-28T13:57:56.507Z,17.51
2019-05-28T14:00:25.542Z,17.57
2019-05-28T14:02:53.930Z,17.46
2019-05-28T14:05:22.281Z,17.29
2019-05-28T14:07:50.564Z,17.25
2019-05-28T14:10:18.862Z,17.13
2019-05-28T14:12:47.730Z,17.08
2019-05-28T14:15:16.222Z,17.25
2019-05-28T14:17:44.964Z,17.36
2019-05-28T14:20:13.630Z,17.47
2019-05-28T14:22:42.132Z,17.38
2019-05-28T14:25:10.480Z,17.31
2019-05-28T14:27:38.907Z,17.19
2019-05-28T14:30:18.214Z,17.28
2019-05-28T14:32:46.489Z,17.57
2019-05-28T14:35:15.382Z,17.81
2019-05-28T14:37:43.779Z,17.94
2019-05-28T14:40:12.059Z,18.06
2019-05-28T14:42:40.337Z,18.01
2019-05-28T14:45:09.280Z,17.97
2019-05-28T14:47:37.640Z,18.01
2019-05-28T14:50:07.796Z,18.00
2019-05-28T14:52:36.162Z,18.01
2019-05-28T14:55:09.024Z,17.93
2019-05-28T14:57:37.389Z,18.05
2019-05-28T15:00:12.625Z,17.91
2019-05-28T15:02:40.898Z,18.00
2019-05-28T15:05:09.302Z,18.02
2019-05-28T15:07:37.701Z,18.00
2019-05-28T15:10:10.088Z,18.03
2019-05-28T15:12:38.391Z,18.21
2019-05-28T15:15:07.050Z,18.32
2019-05-28T15:17:35.465Z,18.20
2019-05-28T15:20:05.722Z,18.32
2019-05-28T15:22:34.083Z,18.38
2019-05-28T15:25:02.645Z,18.56
2019-05-28T15:27:32.287Z,18.85
2019-05-28T15:30:00.604Z,18.90
2019-05-28T15:32:28.916Z,18.72
2019-05-28T15:34:57.540Z,18.88
2019-05-28T15:37:26.067Z,18.84
2019-05-28T15:39:54.368Z,18.76
2019-05-28T15:42:22.658Z,18.44
2019-05-28T15:44:51.032Z,18.09
2019-05-28T15:47:19.327Z,17.89
2019-05-28T15:49:47.699Z,17.75
2019-05-28T15:52:16.083Z,17.68
2019-05-28T15:54:44.520Z,17.69
2019-05-28T15:57:12.811Z,17.83
2019-05-28T15:59:41.108Z,17.96
2019-05-28T16:02:09.436Z,17.99
2019-05-28T16:04:37.870Z,18.01
2019-05-28T16:07:06.291Z,18.20
2019-05-28T16:09:34.728Z,18.26
2019-05-28T16:12:03.033Z,17.98
2019-05-28T16:14:31.335Z,17.67
2019-05-28T16:16:59.673Z,17.41
2019-05-28T16:19:28.006Z,17.22
2019-05-28T16:21:56.318Z,17.14
2019-05-28T16:24:24.673Z,16.93
2019-05-28T16:26:53.014Z,16.70
2019-05-28T16:29:21.298Z,16.55
2019-05-28T16:31:49.583Z,16.33
2019-05-28T16:34:17.884Z,16.22
2019-05-28T16:36:46.187Z,16.13
2019-05-28T16:39:14.541Z,16.07
2019-05-28T16:41:42.950Z,15.99
2019-05-28T16:44:11.429Z,15.83
2019-05-28T16:46:39.733Z,15.84
2019-05-28T16:49:08.009Z,16.02
2019-05-28T16:51:36.326Z,16.33
2019-05-28T16:54:18.638Z,16.46
2019-05-28T16:56:34.860Z,16.65
2019-05-28T16:59:03.271Z,16.70
2019-05-28T17:01:31.562Z,16.72
2019-05-28T17:03:59.902Z,16.68
2019-05-28T17:06:28.327Z,16.68
2019-05-28T17:08:57.372Z,16.54
2019-05-28T17:11:27.972Z,16.25
2019-05-28T17:13:55.797Z,16.23
2019-05-28T17:16:24.069Z,16.20
2019-05-28T17:18:52.406Z,16.23
2019-05-28T17:21:23.070Z,16.23
2019-05-28T17:23:50.757Z,16.19
2019-05-28T17:26:19.212Z,16.16
2019-05-28T17:28:47.486Z,15.92
2019-05-28T17:31:15.854Z,15.79
2019-05-28T17:33:44.266Z,15.83
2019-05-28T17:36:12.630Z,15.79
2019-05-28T17:38:41.036Z,15.55
2019-05-28T17:41:09.568Z,15.41
2019-05-28T17:43:37.953Z,15.37
2019-05-28T17:46:06.359Z,15.36
2019-05-28T17:48:34.717Z,15.38
2019-05-28T17:51:03.198Z,15.34
2019-05-28T17:53:31.575Z,15.39
2019-05-28T17:55:59.939Z,15.29
2019-05-28T17:58:30.953Z,15.20
2019-05-28T18:00:58.335Z,15.14
2019-05-28T18:03:26.668Z,15.12
2019-05-28T18:05:55.001Z,15.09
2019-05-28T18:08:23.385Z,15.04
2019-05-28T18:11:03.683Z,14.98
2019-05-28T18:13:21.773Z,14.88
2019-05-28T18:15:50.194Z,14.74
2019-05-28T18:18:18.541Z,14.62
2019-05-28T18:20:46.847Z,14.57
2019-05-28T18:23:15.404Z,14.60
2019-05-28T18:25:43.711Z,14.61
2019-05-28T18:28:12.163Z,14.55
2019-05-28T18:30:40.546Z,14.44
2019-05-28T18:33:08.824Z,14.25
2019-05-28T18:35:37.460Z,14.18
2019-05-28T18:38:05.727Z,14.17
2019-05-28T18:40:34.049Z,14.17
2019-05-28T18:43:02.878Z,14.14
2019-05-28T18:45:31.288Z,14.13
2019-05-28T18:47:59.579Z,14.12
2019-05-28T18:50:28.704Z,14.08
2019-05-28T18:52:57.129Z,13.99
2019-05-28T18:55:25.768Z,14.01
2019-05-28T18:57:54.130Z,13.99
2019-05-28T19:00:22.671Z,13.92
2019-05-28T19:02:51.104Z,13.85
2019-05-28T19:05:19.389Z,13.80
2019-05-28T19:07:47.752Z,13.76
2019-05-28T19:10:16.077Z,13.65
2019-05-28T19:12:44.447Z,13.58
2019-05-28T19:15:12.871Z,13.53
2019-05-28T19:17:41.191Z,13.53
2019-05-28T19:20:10.629Z,13.49
2019-05-28T19:22:39.016Z,13.42
2019-05-28T19:25:10.523Z,13.38
2019-05-28T19:27:38.813Z,13.27
2019-05-28T19:30:07.799Z,13.21
2019-05-28T19:32:36.198Z,13.22
2019-05-28T19:35:07.954Z,13.20
2019-05-28T19:37:36.306Z,13.18
2019-05-28T19:40:06.717Z,13.11
2019-05-28T19:42:34.999Z,13.12
2019-05-28T19:45:04.455Z,13.10
2019-05-28T19:47:32.884Z,12.98
2019-05-28T19:50:01.248Z,12.90
2019-05-28T19:52:29.637Z,12.85
2019-05-28T19:54:57.952Z,12.76
2019-05-28T19:57:26.237Z,12.75
2019-05-28T19:59:54.687Z,12.74
2019-05-28T20:02:23.004Z,12.72
2019-05-28T20:04:51.376Z,12.71
2019-05-28T20:07:19.924Z,12.71
2019-05-28T20:09:48.228Z,12.67
2019-05-28T20:12:16.510Z,12.62
2019-05-28T20:14:44.845Z,12.60
2019-05-28T20:19:40.597Z,12.47
2019-05-28T20:22:09.012Z,12.46
2019-05-28T20:24:37.187Z,12.44
2019-05-28T20:27:05.540Z,12.40
2019-05-28T20:29:33.947Z,12.38
2019-05-28T20:32:03.179Z,12.34
2019-05-28T20:34:31.689Z,12.32
2019-05-28T20:37:00.041Z,12.31
2019-05-28T20:39:28.374Z,12.31
2019-05-28T20:41:56.649Z,12.31
2019-05-28T20:44:24.971Z,12.31
2019-05-28T20:46:53.261Z,12.25
2019-05-28T20:49:21.709Z,12.13
2019-05-28T20:51:52.165Z,12.07
2019-05-28T20:54:20.618Z,12.00
2019-05-28T20:56:51.176Z,11.95
2019-05-28T20:59:19.004Z,11.88
2019-05-28T21:01:47.654Z,11.83
2019-05-28T21:04:15.936Z,11.80
2019-05-28T21:06:44.252Z,11.77
2019-05-28T21:09:13.068Z,11.69
2019-05-28T21:11:41.937Z,11.68
2019-05-28T21:14:10.259Z,11.66
2019-05-28T21:16:38.583Z,11.64
2019-05-28T21:19:06.868Z,11.59
2019-05-28T21:21:35.264Z,11.55
2019-05-28T21:24:03.581Z,11.50
2019-05-28T21:26:31.920Z,11.45
2019-05-28T21:29:00.581Z,11.39
2019-05-28T21:31:29.183Z,11.33
2019-05-28T21:33:57.604Z,11.27
2019-05-28T21:36:26.752Z,11.23
2019-05-28T21:38:55.289Z,11.20
2019-05-28T21:41:23.873Z,11.15
2019-05-28T21:43:52.460Z,11.13
2019-05-28T21:46:20.876Z,11.09
2019-05-28T21:48:49.143Z,11.03
2019-05-28T21:51:17.530Z,11.00
2019-05-28T21:53:45.844Z,10.99
2019-05-28T21:56:14.127Z,10.98
2019-05-28T21:58:42.387Z,10.94
2019-05-28T22:01:16.889Z,10.96
2019-05-28T22:03:45.189Z,10.91
2019-05-28T22:06:13.439Z,10.87
2019-05-28T22:08:41.675Z,10.86
2019-05-28T22:11:09.944Z,10.83
2019-05-28T22:13:38.197Z,10.81
2019-05-28T22:16:06.496Z,10.78
2019-05-28T22:18:34.773Z,10.74
2019-05-28T22:21:03.014Z,10.70
2019-05-28T22:23:31.307Z,10.69
2019-05-28T22:26:00.453Z,10.65
2019-05-28T22:28:28.774Z,10.58
2019-05-28T22:30:57.717Z,10.53
2019-05-28T22:33:26.046Z,10.52
2019-05-28T22:35:54.351Z,10.48
2019-05-28T22:38:22.588Z,10.44
2019-05-28T22:40:50.853Z,10.41
2019-05-28T22:43:30.723Z,10.38
2019-05-28T22:45:49.380Z,10.35
2019-05-28T22:48:18.277Z,10.32
2019-05-28T22:50:46.797Z,10.28
2019-05-28T22:53:15.152Z,10.24
2019-05-28T22:55:43.394Z,10.18
2019-05-28T22:58:11.708Z,10.13
2019-05-28T23:00:40.091Z,10.10
2019-05-28T23:03:09.374Z,10.07
2019-05-28T23:05:37.670Z,10.03
2019-05-28T23:08:05.969Z,9.95
2019-05-28T23:10:34.248Z,9.90
2019-05-28T23:13:03.041Z,9.84
2019-05-28T23:15:31.586Z,9.73
2019-05-28T23:18:00.393Z,9.70
2019-05-28T23:20:28.735Z,9.66
2019-05-28T23:22:56.995Z,9.62
2019-05-28T23:25:25.295Z,9.59
2019-05-28T23:27:53.557Z,9.55
2019-05-28T23:30:25.225Z,9.50
2019-05-28T23:32:51.833Z,9.44
2019-05-28T23:35:20.146Z,9.39
2019-05-28T23:37:48.428Z,9.34
2019-05-28T23:40:17.834Z,9.30
2019-05-28T23:42:46.092Z,9.25
2019-05-28T23:45:14.417Z,9.22
2019-05-28T23:47:42.753Z,9.18
2019-05-28T23:50:15.833Z,9.11
2019-05-28T23:52:41.032Z,9.08
2019-05-28T23:55:09.940Z,9.05
2019-05-28T23:57:38.301Z,9.00
